sensor_id;sensor_type;location;lat;lon;timestamp;temperature;humidity
46490;DHT22;32204;49.160;8.580;2023-04-12T00:02:13;11.80;1.00
46490;DHT22;32204;49.160;8.580;2023-04-12T00:04:38;11.80;1.00
46490;DHT22;32204;49.160;8.580;2023-04-12T00:07:04;11.80;1.00
46490;DHT22;32204;49.160;8.580;2023-04-12T00:09:31;11.60;91.00
46490;DHT22;32204;49.160;8.580;2023-04-12T00:11:57;11.50;99.90
46490;DHT22;32204;49.160;8.580;2023-04-12T00:14:24;11.50;29.50
46490;DHT22;32204;49.160;8.580;2023-04-12T00:16:49;11.50;97.00
46490;DHT22;32204;49.160;8.580;2023-04-12T00:19:15;11.40;99.90
46490;DHT22;32204;49.160;8.580;2023-04-12T00:21:42;11.30;1.00
46490;DHT22;32204;49.160;8.580;2023-04-12T00:24:07;11.30;99.90
46490;DHT22;32204;49.160;8.580;2023-04-12T00:26:33;11.20;1.00
46490;DHT22;32204;49.160;8.580;2023-04-12T00:28:59;11.10;99.90
46490;DHT22;32204;49.160;8.580;2023-04-12T00:31:25;11.00;99.90
46490;DHT22;32204;49.160;8.580;2023-04-12T00:33:50;11.00;99.90
46490;DHT22;32204;49.160;8.580;2023-04-12T00:36:16;11.10;99.90
46490;DHT22;32204;49.160;8.580;2023-04-12T00:38:41;11.10;1.00
46490;DHT22;32204;49.160;8.580;2023-04-12T00:41:07;11.00;99.90
46490;DHT22;32204;49.160;8.580;2023-04-12T00:43:33;10.80;99.90
46490;DHT22;32204;49.160;8.580;2023-04-12T00:45:59;10.70;1.00
46490;DHT22;32204;49.160;8.580;2023-04-12T00:48:26;10.60;99.90
46490;DHT22;32204;49.160;8.580;2023-04-12T00:50:52;10.70;1.00
46490;DHT22;32204;49.160;8.580;2023-04-12T00:53:20;10.70;99.90
46490;DHT22;32204;49.160;8.580;2023-04-12T00:55:48;10.60;1.00
46490;DHT22;32204;49.160;8.580;2023-04-12T00:58:15;10.60;99.90
46490;DHT22;32204;49.160;8.580;2023-04-12T01:00:41;10.50;1.00
46490;DHT22;32204;49.160;8.580;2023-04-12T01:03:20;10.50;95.00
46490;DHT22;32204;49.160;8.580;2023-04-12T01:08:51;10.50;99.90
46490;DHT22;32204;49.160;8.580;2023-04-12T01:11:32;10.50;99.90
46490;DHT22;32204;49.160;8.580;2023-04-12T01:16:40;10.50;1.00
46490;DHT22;32204;49.160;8.580;2023-04-12T01:22:25;10.60;1.00
46490;DHT22;32204;49.160;8.580;2023-04-12T01:27:49;10.80;1.00
46490;DHT22;32204;49.160;8.580;2023-04-12T01:30:16;10.90;1.00
46490;DHT22;32204;49.160;8.580;2023-04-12T01:32:47;10.80;1.00
46490;DHT22;32204;49.160;8.580;2023-04-12T01:35:17;10.80;1.00
46490;DHT22;32204;49.160;8.580;2023-04-12T01:37:44;10.90;1.00
46490;DHT22;32204;49.160;8.580;2023-04-12T01:40:10;10.90;1.00
46490;DHT22;32204;49.160;8.580;2023-04-12T01:42:36;10.70;1.00
46490;DHT22;32204;49.160;8.580;2023-04-12T01:45:02;10.50;1.00
46490;DHT22;32204;49.160;8.580;2023-04-12T01:47:28;10.40;1.00
46490;DHT22;32204;49.160;8.580;2023-04-12T01:50:03;10.30;28.30
46490;DHT22;32204;49.160;8.580;2023-04-12T01:52:35;10.30;99.90
46490;DHT22;32204;49.160;8.580;2023-04-12T01:55:04;10.30;99.90
46490;DHT22;32204;49.160;8.580;2023-04-12T01:57:30;10.40;57.50
46490;DHT22;32204;49.160;8.580;2023-04-12T01:59:57;10.30;27.30
46490;DHT22;32204;49.160;8.580;2023-04-12T02:02:24;10.30;99.90
46490;DHT22;32204;49.160;8.580;2023-04-12T02:04:51;10.30;7.80
46490;DHT22;32204;49.160;8.580;2023-04-12T02:07:18;10.20;1.00
46490;DHT22;32204;49.160;8.580;2023-04-12T02:09:45;10.20;71.50
46490;DHT22;32204;49.160;8.580;2023-04-12T02:12:10;10.30;35.70
46490;DHT22;32204;49.160;8.580;2023-04-12T02:14:37;10.30;1.00
46490;DHT22;32204;49.160;8.580;2023-04-12T02:17:02;10.20;1.00
46490;DHT22;32204;49.160;8.580;2023-04-12T02:19:28;10.10;1.50
46490;DHT22;32204;49.160;8.580;2023-04-12T02:21:54;10.00;27.70
46490;DHT22;32204;49.160;8.580;2023-04-12T02:24:20;10.10;16.60
46490;DHT22;32204;49.160;8.580;2023-04-12T02:26:45;10.10;35.40
46490;DHT22;32204;49.160;8.580;2023-04-12T02:29:14;10.20;74.20
46490;DHT22;32204;49.160;8.580;2023-04-12T02:31:39;10.20;41.20
46490;DHT22;32204;49.160;8.580;2023-04-12T02:34:06;10.20;1.00
46490;DHT22;32204;49.160;8.580;2023-04-12T02:36:32;10.30;36.00
46490;DHT22;32204;49.160;8.580;2023-04-12T02:38:57;10.30;1.70
46490;DHT22;32204;49.160;8.580;2023-04-12T02:41:23;10.30;1.00
46490;DHT22;32204;49.160;8.580;2023-04-12T02:43:49;10.20;1.00
46490;DHT22;32204;49.160;8.580;2023-04-12T02:46:22;10.10;1.00
46490;DHT22;32204;49.160;8.580;2023-04-12T02:48:48;10.10;10.00
46490;DHT22;32204;49.160;8.580;2023-04-12T02:51:14;10.20;3.90
46490;DHT22;32204;49.160;8.580;2023-04-12T02:53:40;10.20;1.00
46490;DHT22;32204;49.160;8.580;2023-04-12T02:56:06;10.20;1.00
46490;DHT22;32204;49.160;8.580;2023-04-12T02:58:33;10.20;1.00
46490;DHT22;32204;49.160;8.580;2023-04-12T03:00:59;10.20;1.00
46490;DHT22;32204;49.160;8.580;2023-04-12T03:03:26;10.20;1.00
46490;DHT22;32204;49.160;8.580;2023-04-12T03:05:53;10.20;1.00
46490;DHT22;32204;49.160;8.580;2023-04-12T03:08:20;10.20;2.60
46490;DHT22;32204;49.160;8.580;2023-04-12T03:10:46;10.00;7.00
46490;DHT22;32204;49.160;8.580;2023-04-12T03:13:12;9.80;95.90
46490;DHT22;32204;49.160;8.580;2023-04-12T03:15:37;9.80;99.90
46490;DHT22;32204;49.160;8.580;2023-04-12T03:18:03;9.80;99.90
46490;DHT22;32204;49.160;8.580;2023-04-12T03:20:29;9.90;99.90
46490;DHT22;32204;49.160;8.580;2023-04-12T03:22:54;9.90;99.90
46490;DHT22;32204;49.160;8.580;2023-04-12T03:25:20;9.90;99.90
46490;DHT22;32204;49.160;8.580;2023-04-12T03:27:46;9.90;99.90
46490;DHT22;32204;49.160;8.580;2023-04-12T03:30:12;9.80;99.90
46490;DHT22;32204;49.160;8.580;2023-04-12T03:32:38;9.70;99.90
46490;DHT22;32204;49.160;8.580;2023-04-12T03:35:05;9.70;99.90
46490;DHT22;32204;49.160;8.580;2023-04-12T03:37:32;9.70;99.90
46490;DHT22;32204;49.160;8.580;2023-04-12T03:39:58;9.70;99.90
46490;DHT22;32204;49.160;8.580;2023-04-12T03:42:24;9.60;99.90
46490;DHT22;32204;49.160;8.580;2023-04-12T03:44:50;9.70;99.90
46490;DHT22;32204;49.160;8.580;2023-04-12T03:47:17;9.60;99.90
46490;DHT22;32204;49.160;8.580;2023-04-12T03:49:42;9.60;99.90
46490;DHT22;32204;49.160;8.580;2023-04-12T03:52:08;9.50;99.90
46490;DHT22;32204;49.160;8.580;2023-04-12T03:54:34;9.60;99.90
46490;DHT22;32204;49.160;8.580;2023-04-12T03:57:00;9.50;99.90
46490;DHT22;32204;49.160;8.580;2023-04-12T03:59:28;9.50;99.90
46490;DHT22;32204;49.160;8.580;2023-04-12T04:01:54;9.50;99.90
46490;DHT22;32204;49.160;8.580;2023-04-12T04:04:21;9.60;99.90
46490;DHT22;32204;49.160;8.580;2023-04-12T04:06:47;9.50;99.90
46490;DHT22;32204;49.160;8.580;2023-04-12T04:09:13;9.50;99.90
46490;DHT22;32204;49.160;8.580;2023-04-12T04:11:39;9.40;99.90
46490;DHT22;32204;49.160;8.580;2023-04-12T04:14:05;9.50;99.90
46490;DHT22;32204;49.160;8.580;2023-04-12T04:16:30;9.40;99.90
46490;DHT22;32204;49.160;8.580;2023-04-12T04:18:56;9.50;99.90
46490;DHT22;32204;49.160;8.580;2023-04-12T04:21:21;9.50;99.90
46490;DHT22;32204;49.160;8.580;2023-04-12T04:23:48;9.50;99.90
46490;DHT22;32204;49.160;8.580;2023-04-12T04:26:16;9.50;99.90
46490;DHT22;32204;49.160;8.580;2023-04-12T04:28:42;9.50;99.90
46490;DHT22;32204;49.160;8.580;2023-04-12T04:31:13;9.50;99.90
46490;DHT22;32204;49.160;8.580;2023-04-12T04:33:41;9.50;99.90
46490;DHT22;32204;49.160;8.580;2023-04-12T04:36:07;9.60;99.90
46490;DHT22;32204;49.160;8.580;2023-04-12T04:38:33;9.60;99.90
46490;DHT22;32204;49.160;8.580;2023-04-12T04:41:00;9.60;99.90
46490;DHT22;32204;49.160;8.580;2023-04-12T04:43:29;9.60;99.90
46490;DHT22;32204;49.160;8.580;2023-04-12T04:45:56;9.60;99.90
46490;DHT22;32204;49.160;8.580;2023-04-12T04:48:22;9.50;99.90
46490;DHT22;32204;49.160;8.580;2023-04-12T04:50:48;9.50;99.90
46490;DHT22;32204;49.160;8.580;2023-04-12T04:53:18;9.50;99.90
46490;DHT22;32204;49.160;8.580;2023-04-12T04:55:43;9.50;99.90
46490;DHT22;32204;49.160;8.580;2023-04-12T04:58:10;9.50;99.90
46490;DHT22;32204;49.160;8.580;2023-04-12T05:00:36;9.50;99.90
46490;DHT22;32204;49.160;8.580;2023-04-12T05:03:03;9.50;99.90
46490;DHT22;32204;49.160;8.580;2023-04-12T05:05:28;9.40;99.90
46490;DHT22;32204;49.160;8.580;2023-04-12T05:07:55;9.50;99.90
46490;DHT22;32204;49.160;8.580;2023-04-12T05:10:21;9.40;99.90
46490;DHT22;32204;49.160;8.580;2023-04-12T05:12:47;9.50;99.90
46490;DHT22;32204;49.160;8.580;2023-04-12T05:15:12;9.50;99.90
46490;DHT22;32204;49.160;8.580;2023-04-12T05:17:38;9.60;99.90
46490;DHT22;32204;49.160;8.580;2023-04-12T05:20:05;9.60;99.90
46490;DHT22;32204;49.160;8.580;2023-04-12T05:22:33;9.60;99.90
46490;DHT22;32204;49.160;8.580;2023-04-12T05:24:59;9.60;99.90
46490;DHT22;32204;49.160;8.580;2023-04-12T05:27:25;9.60;99.90
46490;DHT22;32204;49.160;8.580;2023-04-12T05:29:55;9.60;99.90
46490;DHT22;32204;49.160;8.580;2023-04-12T05:32:21;9.60;99.90
46490;DHT22;32204;49.160;8.580;2023-04-12T05:34:46;9.60;99.90
46490;DHT22;32204;49.160;8.580;2023-04-12T05:37:12;9.60;99.90
46490;DHT22;32204;49.160;8.580;2023-04-12T05:39:38;9.60;99.90
46490;DHT22;32204;49.160;8.580;2023-04-12T05:42:04;9.60;99.90
46490;DHT22;32204;49.160;8.580;2023-04-12T05:44:29;9.60;99.90
46490;DHT22;32204;49.160;8.580;2023-04-12T05:46:55;9.60;99.90
46490;DHT22;32204;49.160;8.580;2023-04-12T05:49:20;9.50;99.90
46490;DHT22;32204;49.160;8.580;2023-04-12T05:51:46;9.50;99.90
46490;DHT22;32204;49.160;8.580;2023-04-12T05:54:11;9.50;99.90
46490;DHT22;32204;49.160;8.580;2023-04-12T05:56:38;9.50;99.90
46490;DHT22;32204;49.160;8.580;2023-04-12T05:59:03;9.60;99.90
46490;DHT22;32204;49.160;8.580;2023-04-12T06:01:30;9.50;99.90
46490;DHT22;32204;49.160;8.580;2023-04-12T06:03:58;9.50;99.90
46490;DHT22;32204;49.160;8.580;2023-04-12T06:06:23;9.50;99.90
46490;DHT22;32204;49.160;8.580;2023-04-12T06:08:49;9.60;99.90
46490;DHT22;32204;49.160;8.580;2023-04-12T06:11:15;9.60;99.90
46490;DHT22;32204;49.160;8.580;2023-04-12T06:13:41;9.70;99.90
46490;DHT22;32204;49.160;8.580;2023-04-12T06:16:07;9.80;99.90
46490;DHT22;32204;49.160;8.580;2023-04-12T06:18:32;9.90;99.90
46490;DHT22;32204;49.160;8.580;2023-04-12T06:20:58;9.90;99.90
46490;DHT22;32204;49.160;8.580;2023-04-12T06:23:24;9.90;99.90
46490;DHT22;32204;49.160;8.580;2023-04-12T06:25:51;9.90;99.90
46490;DHT22;32204;49.160;8.580;2023-04-12T06:28:17;9.90;99.90
46490;DHT22;32204;49.160;8.580;2023-04-12T06:30:43;9.90;99.90
46490;DHT22;32204;49.160;8.580;2023-04-12T06:33:09;9.90;99.90
46490;DHT22;32204;49.160;8.580;2023-04-12T06:35:35;9.90;99.90
46490;DHT22;32204;49.160;8.580;2023-04-12T06:38:01;9.90;99.90
46490;DHT22;32204;49.160;8.580;2023-04-12T06:40:26;9.90;99.90
46490;DHT22;32204;49.160;8.580;2023-04-12T06:42:52;10.00;99.90
46490;DHT22;32204;49.160;8.580;2023-04-12T06:45:18;10.00;99.90
46490;DHT22;32204;49.160;8.580;2023-04-12T06:47:43;10.10;99.90
46490;DHT22;32204;49.160;8.580;2023-04-12T06:50:09;10.00;99.90
46490;DHT22;32204;49.160;8.580;2023-04-12T06:52:35;10.00;99.90
46490;DHT22;32204;49.160;8.580;2023-04-12T06:55:00;10.00;99.90
46490;DHT22;32204;49.160;8.580;2023-04-12T06:57:26;10.00;99.90
46490;DHT22;32204;49.160;8.580;2023-04-12T06:59:52;10.00;99.90
46490;DHT22;32204;49.160;8.580;2023-04-12T07:02:17;10.00;99.90
46490;DHT22;32204;49.160;8.580;2023-04-12T07:04:43;10.00;99.90
46490;DHT22;32204;49.160;8.580;2023-04-12T07:07:09;10.10;99.90
46490;DHT22;32204;49.160;8.580;2023-04-12T07:09:34;10.20;99.90
46490;DHT22;32204;49.160;8.580;2023-04-12T07:12:00;10.20;99.90
46490;DHT22;32204;49.160;8.580;2023-04-12T07:14:27;10.30;99.90
46490;DHT22;32204;49.160;8.580;2023-04-12T07:16:52;10.30;99.90
46490;DHT22;32204;49.160;8.580;2023-04-12T07:19:18;10.20;99.90
46490;DHT22;32204;49.160;8.580;2023-04-12T07:21:43;10.20;99.90
46490;DHT22;32204;49.160;8.580;2023-04-12T07:24:09;10.20;99.90
46490;DHT22;32204;49.160;8.580;2023-04-12T07:26:35;10.20;99.90
46490;DHT22;32204;49.160;8.580;2023-04-12T07:29:01;10.20;99.90
46490;DHT22;32204;49.160;8.580;2023-04-12T07:31:26;10.20;99.90
46490;DHT22;32204;49.160;8.580;2023-04-12T07:33:55;10.20;99.90
46490;DHT22;32204;49.160;8.580;2023-04-12T07:36:21;10.30;99.90
46490;DHT22;32204;49.160;8.580;2023-04-12T07:38:46;10.30;99.90
46490;DHT22;32204;49.160;8.580;2023-04-12T07:41:13;10.30;99.90
46490;DHT22;32204;49.160;8.580;2023-04-12T07:43:38;10.30;99.90
46490;DHT22;32204;49.160;8.580;2023-04-12T07:46:04;10.30;99.90
46490;DHT22;32204;49.160;8.580;2023-04-12T07:48:33;10.40;99.90
46490;DHT22;32204;49.160;8.580;2023-04-12T07:50:58;10.60;99.90
46490;DHT22;32204;49.160;8.580;2023-04-12T07:53:25;10.60;99.90
46490;DHT22;32204;49.160;8.580;2023-04-12T07:55:52;10.60;99.90
46490;DHT22;32204;49.160;8.580;2023-04-12T07:58:19;10.70;99.90
46490;DHT22;32204;49.160;8.580;2023-04-12T08:00:45;10.80;99.90
46490;DHT22;32204;49.160;8.580;2023-04-12T08:03:12;11.00;99.90
46490;DHT22;32204;49.160;8.580;2023-04-12T08:05:38;11.10;99.90
46490;DHT22;32204;49.160;8.580;2023-04-12T08:08:03;11.00;99.90
46490;DHT22;32204;49.160;8.580;2023-04-12T08:10:30;11.00;99.90
46490;DHT22;32204;49.160;8.580;2023-04-12T08:12:56;11.00;99.90
46490;DHT22;32204;49.160;8.580;2023-04-12T08:15:22;11.20;99.90
46490;DHT22;32204;49.160;8.580;2023-04-12T08:17:48;11.20;99.90
46490;DHT22;32204;49.160;8.580;2023-04-12T08:20:14;11.30;99.90
46490;DHT22;32204;49.160;8.580;2023-04-12T08:22:42;11.30;99.90
46490;DHT22;32204;49.160;8.580;2023-04-12T08:25:11;11.40;99.90
46490;DHT22;32204;49.160;8.580;2023-04-12T08:27:47;11.50;99.90
46490;DHT22;32204;49.160;8.580;2023-04-12T08:30:13;11.60;99.90
46490;DHT22;32204;49.160;8.580;2023-04-12T08:32:39;11.60;99.90
46490;DHT22;32204;49.160;8.580;2023-04-12T08:35:05;11.80;99.90
46490;DHT22;32204;49.160;8.580;2023-04-12T08:37:31;11.80;99.90
46490;DHT22;32204;49.160;8.580;2023-04-12T08:39:58;11.90;99.90
46490;DHT22;32204;49.160;8.580;2023-04-12T08:42:25;11.90;99.90
46490;DHT22;32204;49.160;8.580;2023-04-12T08:44:51;12.00;99.90
46490;DHT22;32204;49.160;8.580;2023-04-12T08:47:18;12.10;99.90
46490;DHT22;32204;49.160;8.580;2023-04-12T08:49:45;12.20;99.90
46490;DHT22;32204;49.160;8.580;2023-04-12T08:52:11;12.20;1.00
46490;DHT22;32204;49.160;8.580;2023-04-12T08:54:36;12.30;99.90
46490;DHT22;32204;49.160;8.580;2023-04-12T08:57:04;12.30;1.00
46490;DHT22;32204;49.160;8.580;2023-04-12T08:59:31;12.40;1.00
46490;DHT22;32204;49.160;8.580;2023-04-12T09:01:58;12.40;1.00
46490;DHT22;32204;49.160;8.580;2023-04-12T09:04:24;12.40;1.00
46490;DHT22;32204;49.160;8.580;2023-04-12T09:06:54;12.40;1.00
46490;DHT22;32204;49.160;8.580;2023-04-12T09:09:40;12.40;13.00
46490;DHT22;32204;49.160;8.580;2023-04-12T09:12:09;12.40;60.30
46490;DHT22;32204;49.160;8.580;2023-04-12T09:14:35;12.40;28.80
46490;DHT22;32204;49.160;8.580;2023-04-12T09:17:00;12.40;29.50
46490;DHT22;32204;49.160;8.580;2023-04-12T09:19:34;12.40;99.90
46490;DHT22;32204;49.160;8.580;2023-04-12T09:22:00;12.50;99.90
46490;DHT22;32204;49.160;8.580;2023-04-12T09:24:27;12.60;99.90
46490;DHT22;32204;49.160;8.580;2023-04-12T09:29:28;12.70;91.10
46490;DHT22;32204;49.160;8.580;2023-04-12T09:32:02;12.80;99.90
46490;DHT22;32204;49.160;8.580;2023-04-12T09:34:29;12.70;1.00
46490;DHT22;32204;49.160;8.580;2023-04-12T09:36:55;12.80;3.00
46490;DHT22;32204;49.160;8.580;2023-04-12T09:39:34;12.80;1.00
46490;DHT22;32204;49.160;8.580;2023-04-12T09:42:17;12.90;1.00
46490;DHT22;32204;49.160;8.580;2023-04-12T09:44:43;12.90;1.00
46490;DHT22;32204;49.160;8.580;2023-04-12T09:47:09;13.00;1.00
46490;DHT22;32204;49.160;8.580;2023-04-12T09:49:42;13.00;1.00
46490;DHT22;32204;49.160;8.580;2023-04-12T09:52:11;13.00;1.00
46490;DHT22;32204;49.160;8.580;2023-04-12T09:54:41;13.00;1.00
46490;DHT22;32204;49.160;8.580;2023-04-12T09:57:07;13.00;1.00
46490;DHT22;32204;49.160;8.580;2023-04-12T09:59:39;13.00;1.00
46490;DHT22;32204;49.160;8.580;2023-04-12T10:02:16;13.10;1.00
46490;DHT22;32204;49.160;8.580;2023-04-12T10:04:43;13.20;1.00
46490;DHT22;32204;49.160;8.580;2023-04-12T10:07:09;13.10;1.00
46490;DHT22;32204;49.160;8.580;2023-04-12T10:09:38;13.10;1.00
46490;DHT22;32204;49.160;8.580;2023-04-12T10:12:04;13.20;1.00
46490;DHT22;32204;49.160;8.580;2023-04-12T10:14:30;13.10;1.00
46490;DHT22;32204;49.160;8.580;2023-04-12T10:16:58;13.10;1.00
46490;DHT22;32204;49.160;8.580;2023-04-12T10:19:28;13.20;1.00
46490;DHT22;32204;49.160;8.580;2023-04-12T10:21:55;13.20;1.00
46490;DHT22;32204;49.160;8.580;2023-04-12T10:24:25;13.40;1.00
46490;DHT22;32204;49.160;8.580;2023-04-12T10:26:55;13.40;99.90
46490;DHT22;32204;49.160;8.580;2023-04-12T10:29:27;13.40;99.90
46490;DHT22;32204;49.160;8.580;2023-04-12T10:31:55;13.40;99.90
46490;DHT22;32204;49.160;8.580;2023-04-12T10:34:28;13.60;99.90
46490;DHT22;32204;49.160;8.580;2023-04-12T10:36:58;13.60;99.90
46490;DHT22;32204;49.160;8.580;2023-04-12T10:39:44;13.70;99.90
46490;DHT22;32204;49.160;8.580;2023-04-12T10:42:27;13.80;99.90
46490;DHT22;32204;49.160;8.580;2023-04-12T10:44:55;13.90;99.90
46490;DHT22;32204;49.160;8.580;2023-04-12T10:55:43;13.90;1.00
46490;DHT22;32204;49.160;8.580;2023-04-12T10:58:09;14.00;1.00
46490;DHT22;32204;49.160;8.580;2023-04-12T11:03:23;14.00;1.00
46490;DHT22;32204;49.160;8.580;2023-04-12T11:06:01;13.90;1.00
46490;DHT22;32204;49.160;8.580;2023-04-12T11:08:31;14.00;1.00
46490;DHT22;32204;49.160;8.580;2023-04-12T11:11:04;14.20;1.00
46490;DHT22;32204;49.160;8.580;2023-04-12T11:13:42;14.30;1.00
46490;DHT22;32204;49.160;8.580;2023-04-12T11:16:09;14.30;99.90
46490;DHT22;32204;49.160;8.580;2023-04-12T11:18:37;14.30;1.00
46490;DHT22;32204;49.160;8.580;2023-04-12T11:21:04;14.20;1.00
46490;DHT22;32204;49.160;8.580;2023-04-12T11:23:30;14.20;64.90
46490;DHT22;32204;49.160;8.580;2023-04-12T11:25:57;14.10;99.90
46490;DHT22;32204;49.160;8.580;2023-04-12T11:28:23;14.20;1.00
46490;DHT22;32204;49.160;8.580;2023-04-12T11:30:56;14.30;99.90
46490;DHT22;32204;49.160;8.580;2023-04-12T11:33:36;14.40;1.00
46490;DHT22;32204;49.160;8.580;2023-04-12T11:36:10;14.50;99.90
46490;DHT22;32204;49.160;8.580;2023-04-12T11:38:39;14.50;1.00
46490;DHT22;32204;49.160;8.580;2023-04-12T11:41:07;14.50;99.90
46490;DHT22;32204;49.160;8.580;2023-04-12T11:43:34;14.40;99.90
46490;DHT22;32204;49.160;8.580;2023-04-12T11:46:00;14.50;99.90
46490;DHT22;32204;49.160;8.580;2023-04-12T11:48:27;14.50;99.90
46490;DHT22;32204;49.160;8.580;2023-04-12T11:50:53;14.70;99.90
46490;DHT22;32204;49.160;8.580;2023-04-12T11:53:19;14.70;2.80
46490;DHT22;32204;49.160;8.580;2023-04-12T11:55:49;14.90;99.90
46490;DHT22;32204;49.160;8.580;2023-04-12T11:58:15;14.90;99.90
46490;DHT22;32204;49.160;8.580;2023-04-12T12:00:42;14.80;99.90
46490;DHT22;32204;49.160;8.580;2023-04-12T12:03:09;14.80;99.90
46490;DHT22;32204;49.160;8.580;2023-04-12T12:05:39;15.00;99.90
46490;DHT22;32204;49.160;8.580;2023-04-12T12:08:07;15.10;99.90
46490;DHT22;32204;49.160;8.580;2023-04-12T12:10:34;15.00;1.00
46490;DHT22;32204;49.160;8.580;2023-04-12T12:13:00;15.00;99.90
46490;DHT22;32204;49.160;8.580;2023-04-12T12:15:32;15.00;99.90
46490;DHT22;32204;49.160;8.580;2023-04-12T12:17:57;15.00;99.90
46490;DHT22;32204;49.160;8.580;2023-04-12T12:20:23;14.90;99.90
46490;DHT22;32204;49.160;8.580;2023-04-12T12:22:49;14.90;1.00
46490;DHT22;32204;49.160;8.580;2023-04-12T12:25:17;14.90;1.00
46490;DHT22;32204;49.160;8.580;2023-04-12T12:27:44;14.90;1.00
46490;DHT22;32204;49.160;8.580;2023-04-12T12:30:16;14.90;1.00
46490;DHT22;32204;49.160;8.580;2023-04-12T12:32:42;14.90;72.40
46490;DHT22;32204;49.160;8.580;2023-04-12T12:35:10;14.70;99.90
46490;DHT22;32204;49.160;8.580;2023-04-12T12:37:37;14.70;99.90
46490;DHT22;32204;49.160;8.580;2023-04-12T12:40:12;14.70;99.90
46490;DHT22;32204;49.160;8.580;2023-04-12T12:42:53;14.60;99.90
46490;DHT22;32204;49.160;8.580;2023-04-12T12:45:21;14.70;1.00
46490;DHT22;32204;49.160;8.580;2023-04-12T12:48:07;14.80;99.90
46490;DHT22;32204;49.160;8.580;2023-04-12T12:50:34;14.90;99.90
46490;DHT22;32204;49.160;8.580;2023-04-12T12:53:01;14.90;1.00
46490;DHT22;32204;49.160;8.580;2023-04-12T12:55:29;15.10;1.00
46490;DHT22;32204;49.160;8.580;2023-04-12T12:57:56;15.10;1.00
46490;DHT22;32204;49.160;8.580;2023-04-12T13:00:23;15.20;99.90
46490;DHT22;32204;49.160;8.580;2023-04-12T13:02:49;15.40;1.00
46490;DHT22;32204;49.160;8.580;2023-04-12T13:05:16;15.40;99.90
46490;DHT22;32204;49.160;8.580;2023-04-12T13:07:41;15.40;1.00
46490;DHT22;32204;49.160;8.580;2023-04-12T13:10:08;15.60;1.00
46490;DHT22;32204;49.160;8.580;2023-04-12T13:12:35;15.50;1.00
46490;DHT22;32204;49.160;8.580;2023-04-12T13:15:01;15.50;16.70
46490;DHT22;32204;49.160;8.580;2023-04-12T13:17:27;15.50;1.00
46490;DHT22;32204;49.160;8.580;2023-04-12T13:19:53;15.50;86.50
46490;DHT22;32204;49.160;8.580;2023-04-12T13:22:19;15.40;99.90
46490;DHT22;32204;49.160;8.580;2023-04-12T13:24:45;15.30;99.90
46490;DHT22;32204;49.160;8.580;2023-04-12T13:27:15;15.20;99.90
46490;DHT22;32204;49.160;8.580;2023-04-12T13:29:40;15.10;1.00
46490;DHT22;32204;49.160;8.580;2023-04-12T13:32:06;15.10;1.00
46490;DHT22;32204;49.160;8.580;2023-04-12T13:34:32;15.00;99.90
46490;DHT22;32204;49.160;8.580;2023-04-12T13:36:59;14.90;99.90
46490;DHT22;32204;49.160;8.580;2023-04-12T13:39:25;15.00;39.60
46490;DHT22;32204;49.160;8.580;2023-04-12T13:41:51;15.00;99.90
46490;DHT22;32204;49.160;8.580;2023-04-12T13:44:17;15.00;99.90
46490;DHT22;32204;49.160;8.580;2023-04-12T13:46:43;14.90;1.00
46490;DHT22;32204;49.160;8.580;2023-04-12T13:49:09;14.90;99.90
46490;DHT22;32204;49.160;8.580;2023-04-12T13:51:34;15.00;99.90
46490;DHT22;32204;49.160;8.580;2023-04-12T13:54:00;15.00;99.90
46490;DHT22;32204;49.160;8.580;2023-04-12T13:56:26;15.00;99.90
46490;DHT22;32204;49.160;8.580;2023-04-12T13:58:52;15.00;1.00
46490;DHT22;32204;49.160;8.580;2023-04-12T14:01:17;15.00;99.90
46490;DHT22;32204;49.160;8.580;2023-04-12T14:03:45;14.80;1.00
46490;DHT22;32204;49.160;8.580;2023-04-12T14:06:12;14.70;1.00
46490;DHT22;32204;49.160;8.580;2023-04-12T14:08:38;14.50;99.90
46490;DHT22;32204;49.160;8.580;2023-04-12T14:11:03;14.30;99.90
46490;DHT22;32204;49.160;8.580;2023-04-12T14:13:29;14.10;99.90
46490;DHT22;32204;49.160;8.580;2023-04-12T14:15:55;13.80;1.00
46490;DHT22;32204;49.160;8.580;2023-04-12T14:18:21;13.70;16.70
46490;DHT22;32204;49.160;8.580;2023-04-12T14:20:47;13.50;99.90
46490;DHT22;32204;49.160;8.580;2023-04-12T14:23:20;13.30;99.90
46490;DHT22;32204;49.160;8.580;2023-04-12T14:25:48;13.00;99.90
46490;DHT22;32204;49.160;8.580;2023-04-12T14:28:14;12.80;99.90
46490;DHT22;32204;49.160;8.580;2023-04-12T14:30:45;12.30;99.90
46490;DHT22;32204;49.160;8.580;2023-04-12T14:33:11;11.70;99.90
46490;DHT22;32204;49.160;8.580;2023-04-12T14:35:37;11.50;99.90
46490;DHT22;32204;49.160;8.580;2023-04-12T14:38:02;11.30;99.90
46490;DHT22;32204;49.160;8.580;2023-04-12T14:40:31;11.10;99.90
46490;DHT22;32204;49.160;8.580;2023-04-12T14:42:57;11.10;99.90
46490;DHT22;32204;49.160;8.580;2023-04-12T14:45:22;11.10;99.90
46490;DHT22;32204;49.160;8.580;2023-04-12T14:47:48;11.10;99.90
46490;DHT22;32204;49.160;8.580;2023-04-12T14:50:14;11.20;99.90
46490;DHT22;32204;49.160;8.580;2023-04-12T14:52:40;11.20;99.90
46490;DHT22;32204;49.160;8.580;2023-04-12T14:55:06;11.40;99.90
46490;DHT22;32204;49.160;8.580;2023-04-12T14:57:33;11.40;99.90
46490;DHT22;32204;49.160;8.580;2023-04-12T14:59:59;11.50;99.90
46490;DHT22;32204;49.160;8.580;2023-04-12T15:02:25;11.50;99.90
46490;DHT22;32204;49.160;8.580;2023-04-12T15:04:51;11.60;99.90
46490;DHT22;32204;49.160;8.580;2023-04-12T15:07:17;11.70;99.90
46490;DHT22;32204;49.160;8.580;2023-04-12T15:09:42;11.80;99.90
46490;DHT22;32204;49.160;8.580;2023-04-12T15:12:10;12.00;99.90
46490;DHT22;32204;49.160;8.580;2023-04-12T15:14:36;12.10;99.90
46490;DHT22;32204;49.160;8.580;2023-04-12T15:17:02;12.20;99.90
46490;DHT22;32204;49.160;8.580;2023-04-12T15:19:30;12.40;99.90
46490;DHT22;32204;49.160;8.580;2023-04-12T15:21:55;12.50;99.90
46490;DHT22;32204;49.160;8.580;2023-04-12T15:24:22;12.60;99.90
46490;DHT22;32204;49.160;8.580;2023-04-12T15:26:48;12.70;99.90
46490;DHT22;32204;49.160;8.580;2023-04-12T15:29:15;12.80;99.90
46490;DHT22;32204;49.160;8.580;2023-04-12T15:31:41;13.00;99.90
46490;DHT22;32204;49.160;8.580;2023-04-12T15:34:09;13.00;99.90
46490;DHT22;32204;49.160;8.580;2023-04-12T15:36:35;13.00;1.00
46490;DHT22;32204;49.160;8.580;2023-04-12T15:39:02;12.90;22.60
46490;DHT22;32204;49.160;8.580;2023-04-12T15:41:33;13.00;92.20
46490;DHT22;32204;49.160;8.580;2023-04-12T15:44:01;13.00;98.60
46490;DHT22;32204;49.160;8.580;2023-04-12T15:46:27;13.10;10.80
46490;DHT22;32204;49.160;8.580;2023-04-12T15:48:53;13.10;1.00
46490;DHT22;32204;49.160;8.580;2023-04-12T15:51:18;13.10;1.00
46490;DHT22;32204;49.160;8.580;2023-04-12T15:53:44;13.20;1.00
46490;DHT22;32204;49.160;8.580;2023-04-12T15:56:09;13.30;1.00
46490;DHT22;32204;49.160;8.580;2023-04-12T15:58:37;13.30;1.00
46490;DHT22;32204;49.160;8.580;2023-04-12T16:01:04;13.20;1.00
46490;DHT22;32204;49.160;8.580;2023-04-12T16:03:31;13.40;1.00